sensor_id;sensor_type;location;lat;lon;timestamp;temperature;humidity
8945;DHT22;4507;40.232;29.132;2023-09-30T00:00:11;20.20;99.90
8945;DHT22;4507;40.232;29.132;2023-09-30T00:02:41;20.20;99.90
8945;DHT22;4507;40.232;29.132;2023-09-30T00:05:29;20.20;99.90
8945;DHT22;4507;40.232;29.132;2023-09-30T00:07:58;20.20;99.90
8945;DHT22;4507;40.232;29.132;2023-09-30T00:10:45;20.20;99.90
8945;DHT22;4507;40.232;29.132;2023-09-30T00:13:16;20.20;99.90
8945;DHT22;4507;40.232;29.132;2023-09-30T00:15:45;20.20;99.90
8945;DHT22;4507;40.232;29.132;2023-09-30T00:18:14;20.20;99.90
8945;DHT22;4507;40.232;29.132;2023-09-30T00:20:43;20.30;99.90
8945;DHT22;4507;40.232;29.132;2023-09-30T00:23:12;20.30;99.90
8945;DHT22;4507;40.232;29.132;2023-09-30T00:25:41;20.30;99.90
8945;DHT22;4507;40.232;29.132;2023-09-30T00:28:11;20.30;99.90
8945;DHT22;4507;40.232;29.132;2023-09-30T00:30:42;20.20;99.90
8945;DHT22;4507;40.232;29.132;2023-09-30T00:33:13;20.20;99.90
8945;DHT22;4507;40.232;29.132;2023-09-30T00:35:42;20.10;99.90
8945;DHT22;4507;40.232;29.132;2023-09-30T00:38:11;20.00;99.90
8945;DHT22;4507;40.232;29.132;2023-09-30T00:40:47;20.00;99.90
8945;DHT22;4507;40.232;29.132;2023-09-30T00:43:20;20.00;99.90
8945;DHT22;4507;40.232;29.132;2023-09-30T00:46:16;19.90;99.90
8945;DHT22;4507;40.232;29.132;2023-09-30T00:48:46;19.90;99.90
8945;DHT22;4507;40.232;29.132;2023-09-30T00:51:16;19.80;99.90
8945;DHT22;4507;40.232;29.132;2023-09-30T00:53:45;19.80;99.90
8945;DHT22;4507;40.232;29.132;2023-09-30T00:56:14;19.80;99.90
8945;DHT22;4507;40.232;29.132;2023-09-30T00:58:43;19.80;99.90
8945;DHT22;4507;40.232;29.132;2023-09-30T01:01:15;19.80;99.90
8945;DHT22;4507;40.232;29.132;2023-09-30T01:03:44;19.80;99.90
8945;DHT22;4507;40.232;29.132;2023-09-30T01:06:13;19.80;99.90
8945;DHT22;4507;40.232;29.132;2023-09-30T01:08:42;19.80;99.90
8945;DHT22;4507;40.232;29.132;2023-09-30T01:11:12;19.80;99.90
8945;DHT22;4507;40.232;29.132;2023-09-30T01:13:43;19.80;99.90
8945;DHT22;4507;40.232;29.132;2023-09-30T01:16:12;19.80;99.90
8945;DHT22;4507;40.232;29.132;2023-09-30T01:18:43;19.80;99.90
8945;DHT22;4507;40.232;29.132;2023-09-30T01:21:13;19.80;99.90
8945;DHT22;4507;40.232;29.132;2023-09-30T01:23:43;19.80;99.90
8945;DHT22;4507;40.232;29.132;2023-09-30T01:26:14;19.80;99.90
8945;DHT22;4507;40.232;29.132;2023-09-30T01:28:43;19.80;99.90
8945;DHT22;4507;40.232;29.132;2023-09-30T01:31:16;19.90;99.90
8945;DHT22;4507;40.232;29.132;2023-09-30T01:33:45;19.90;99.90
8945;DHT22;4507;40.232;29.132;2023-09-30T01:36:14;19.90;99.90
8945;DHT22;4507;40.232;29.132;2023-09-30T01:38:46;19.90;99.90
8945;DHT22;4507;40.232;29.132;2023-09-30T01:41:15;19.90;99.90
8945;DHT22;4507;40.232;29.132;2023-09-30T01:43:45;19.90;99.90
8945;DHT22;4507;40.232;29.132;2023-09-30T01:46:14;19.90;99.90
8945;DHT22;4507;40.232;29.132;2023-09-30T01:48:43;19.80;99.90
8945;DHT22;4507;40.232;29.132;2023-09-30T01:51:12;19.80;99.90
8945;DHT22;4507;40.232;29.132;2023-09-30T01:53:41;19.80;99.90
8945;DHT22;4507;40.232;29.132;2023-09-30T01:56:12;19.80;99.90
8945;DHT22;4507;40.232;29.132;2023-09-30T01:58:41;19.80;99.90
8945;DHT22;4507;40.232;29.132;2023-09-30T02:01:10;19.80;99.90
8945;DHT22;4507;40.232;29.132;2023-09-30T02:03:39;19.80;99.90
8945;DHT22;4507;40.232;29.132;2023-09-30T02:06:09;19.80;99.90
8945;DHT22;4507;40.232;29.132;2023-09-30T02:08:38;19.80;99.90
8945;DHT22;4507;40.232;29.132;2023-09-30T02:11:07;19.80;99.90
8945;DHT22;4507;40.232;29.132;2023-09-30T02:13:41;19.70;99.90
8945;DHT22;4507;40.232;29.132;2023-09-30T02:16:12;19.70;99.90
8945;DHT22;4507;40.232;29.132;2023-09-30T02:18:43;19.70;99.90
8945;DHT22;4507;40.232;29.132;2023-09-30T02:21:13;19.70;99.90
8945;DHT22;4507;40.232;29.132;2023-09-30T02:23:42;19.70;99.90
8945;DHT22;4507;40.232;29.132;2023-09-30T02:26:15;19.80;99.90
8945;DHT22;4507;40.232;29.132;2023-09-30T02:28:45;19.80;99.90
8945;DHT22;4507;40.232;29.132;2023-09-30T02:31:14;19.80;99.90
8945;DHT22;4507;40.232;29.132;2023-09-30T02:33:45;19.80;99.90
8945;DHT22;4507;40.232;29.132;2023-09-30T02:36:14;19.80;99.90
8945;DHT22;4507;40.232;29.132;2023-09-30T02:38:43;19.80;99.90
8945;DHT22;4507;40.232;29.132;2023-09-30T02:41:15;19.80;99.90
8945;DHT22;4507;40.232;29.132;2023-09-30T02:43:46;19.80;99.90
8945;DHT22;4507;40.232;29.132;2023-09-30T02:46:16;19.90;99.90
8945;DHT22;4507;40.232;29.132;2023-09-30T02:48:46;19.90;99.90
8945;DHT22;4507;40.232;29.132;2023-09-30T02:51:15;19.90;99.90
8945;DHT22;4507;40.232;29.132;2023-09-30T02:53:44;19.90;99.90
8945;DHT22;4507;40.232;29.132;2023-09-30T02:56:13;19.70;99.90
8945;DHT22;4507;40.232;29.132;2023-09-30T02:58:42;19.90;99.90
8945;DHT22;4507;40.232;29.132;2023-09-30T03:01:15;19.90;99.90
8945;DHT22;4507;40.232;29.132;2023-09-30T03:03:45;19.90;99.90
8945;DHT22;4507;40.232;29.132;2023-09-30T03:06:14;20.00;99.90
8945;DHT22;4507;40.232;29.132;2023-09-30T03:08:45;20.00;99.90
8945;DHT22;4507;40.232;29.132;2023-09-30T03:11:34;20.00;99.90
8945;DHT22;4507;40.232;29.132;2023-09-30T03:14:03;20.00;99.90
8945;DHT22;4507;40.232;29.132;2023-09-30T03:16:57;20.00;99.90
8945;DHT22;4507;40.232;29.132;2023-09-30T03:19:27;20.00;99.90
8945;DHT22;4507;40.232;29.132;2023-09-30T03:21:56;20.00;99.90
8945;DHT22;4507;40.232;29.132;2023-09-30T03:24:25;20.00;99.90
8945;DHT22;4507;40.232;29.132;2023-09-30T03:26:54;20.00;99.90
8945;DHT22;4507;40.232;29.132;2023-09-30T03:29:24;19.90;99.90
8945;DHT22;4507;40.232;29.132;2023-09-30T03:31:53;20.00;99.90
8945;DHT22;4507;40.232;29.132;2023-09-30T03:34:25;20.00;99.90
8945;DHT22;4507;40.232;29.132;2023-09-30T03:36:55;20.00;99.90
8945;DHT22;4507;40.232;29.132;2023-09-30T03:39:26;20.00;99.90
8945;DHT22;4507;40.232;29.132;2023-09-30T03:41:55;20.00;99.90
8945;DHT22;4507;40.232;29.132;2023-09-30T03:44:25;20.00;99.90
8945;DHT22;4507;40.232;29.132;2023-09-30T03:46:55;20.00;99.90
8945;DHT22;4507;40.232;29.132;2023-09-30T03:49:30;20.00;99.90
8945;DHT22;4507;40.232;29.132;2023-09-30T03:51:59;20.00;99.90
8945;DHT22;4507;40.232;29.132;2023-09-30T03:54:28;20.10;99.90
8945;DHT22;4507;40.232;29.132;2023-09-30T03:56:56;20.10;99.90
8945;DHT22;4507;40.232;29.132;2023-09-30T03:59:27;20.10;99.90
8945;DHT22;4507;40.232;29.132;2023-09-30T04:01:56;20.10;99.90
8945;DHT22;4507;40.232;29.132;2023-09-30T04:04:25;20.10;99.90
8945;DHT22;4507;40.232;29.132;2023-09-30T04:06:56;20.20;99.90
8945;DHT22;4507;40.232;29.132;2023-09-30T04:09:25;20.10;99.90
8945;DHT22;4507;40.232;29.132;2023-09-30T04:11:54;20.20;99.90
8945;DHT22;4507;40.232;29.132;2023-09-30T04:14:23;20.20;99.90
8945;DHT22;4507;40.232;29.132;2023-09-30T04:16:53;20.20;99.90
8945;DHT22;4507;40.232;29.132;2023-09-30T04:19:22;20.20;99.90
8945;DHT22;4507;40.232;29.132;2023-09-30T04:21:51;20.20;99.90
8945;DHT22;4507;40.232;29.132;2023-09-30T04:24:22;20.20;99.90
8945;DHT22;4507;40.232;29.132;2023-09-30T04:26:51;20.20;99.90
8945;DHT22;4507;40.232;29.132;2023-09-30T04:29:24;20.30;99.90
8945;DHT22;4507;40.232;29.132;2023-09-30T04:31:53;20.20;99.90
8945;DHT22;4507;40.232;29.132;2023-09-30T04:34:22;20.30;99.90
8945;DHT22;4507;40.232;29.132;2023-09-30T04:36:51;20.20;99.90
8945;DHT22;4507;40.232;29.132;2023-09-30T04:39:22;20.30;99.90
8945;DHT22;4507;40.232;29.132;2023-09-30T04:41:51;20.30;99.90
8945;DHT22;4507;40.232;29.132;2023-09-30T04:44:20;20.30;99.90
8945;DHT22;4507;40.232;29.132;2023-09-30T04:46:50;20.20;99.90
8945;DHT22;4507;40.232;29.132;2023-09-30T04:49:19;20.20;99.90
8945;DHT22;4507;40.232;29.132;2023-09-30T04:51:48;20.20;99.90
8945;DHT22;4507;40.232;29.132;2023-09-30T04:54:17;20.20;99.90
8945;DHT22;4507;40.232;29.132;2023-09-30T04:56:50;20.20;99.90
8945;DHT22;4507;40.232;29.132;2023-09-30T04:59:19;20.30;99.90
8945;DHT22;4507;40.232;29.132;2023-09-30T05:01:48;20.30;99.90
8945;DHT22;4507;40.232;29.132;2023-09-30T05:04:17;20.20;99.90
8945;DHT22;4507;40.232;29.132;2023-09-30T05:06:46;20.30;99.90
8945;DHT22;4507;40.232;29.132;2023-09-30T05:09:15;20.20;99.90
8945;DHT22;4507;40.232;29.132;2023-09-30T05:11:44;20.30;99.90
8945;DHT22;4507;40.232;29.132;2023-09-30T05:14:14;20.30;99.90
8945;DHT22;4507;40.232;29.132;2023-09-30T05:16:43;20.30;99.90
8945;DHT22;4507;40.232;29.132;2023-09-30T05:19:13;20.30;99.90
8945;DHT22;4507;40.232;29.132;2023-09-30T05:21:42;20.30;99.90
8945;DHT22;4507;40.232;29.132;2023-09-30T05:24:12;20.30;99.90
8945;DHT22;4507;40.232;29.132;2023-09-30T05:26:41;20.30;99.90
8945;DHT22;4507;40.232;29.132;2023-09-30T05:29:10;20.30;99.90
8945;DHT22;4507;40.232;29.132;2023-09-30T05:31:40;20.40;99.90
8945;DHT22;4507;40.232;29.132;2023-09-30T05:34:10;20.70;99.90
8945;DHT22;4507;40.232;29.132;2023-09-30T05:36:39;20.40;99.90
8945;DHT22;4507;40.232;29.132;2023-09-30T05:39:08;20.50;99.90
8945;DHT22;4507;40.232;29.132;2023-09-30T05:41:38;20.50;99.90
8945;DHT22;4507;40.232;29.132;2023-09-30T05:44:07;20.60;99.90
8945;DHT22;4507;40.232;29.132;2023-09-30T05:46:36;20.60;99.90
8945;DHT22;4507;40.232;29.132;2023-09-30T05:49:07;20.70;99.90
8945;DHT22;4507;40.232;29.132;2023-09-30T05:51:38;20.70;99.90
8945;DHT22;4507;40.232;29.132;2023-09-30T05:54:08;20.70;99.90
8945;DHT22;4507;40.232;29.132;2023-09-30T05:56:37;20.80;99.90
8945;DHT22;4507;40.232;29.132;2023-09-30T05:59:07;20.90;99.90
8945;DHT22;4507;40.232;29.132;2023-09-30T06:01:36;20.90;99.90
8945;DHT22;4507;40.232;29.132;2023-09-30T06:04:08;21.00;99.90
8945;DHT22;4507;40.232;29.132;2023-09-30T06:06:38;21.00;99.90
8945;DHT22;4507;40.232;29.132;2023-09-30T06:09:08;21.10;99.90
8945;DHT22;4507;40.232;29.132;2023-09-30T06:11:43;21.20;99.90
8945;DHT22;4507;40.232;29.132;2023-09-30T06:14:14;21.20;99.90
8945;DHT22;4507;40.232;29.132;2023-09-30T06:16:43;21.30;99.90
8945;DHT22;4507;40.232;29.132;2023-09-30T06:19:13;21.30;99.90
8945;DHT22;4507;40.232;29.132;2023-09-30T06:21:42;21.40;99.90
8945;DHT22;4507;40.232;29.132;2023-09-30T06:24:11;21.40;99.90
8945;DHT22;4507;40.232;29.132;2023-09-30T06:26:40;21.50;99.90
8945;DHT22;4507;40.232;29.132;2023-09-30T06:29:09;21.50;99.90
8945;DHT22;4507;40.232;29.132;2023-09-30T06:31:39;21.50;99.90
8945;DHT22;4507;40.232;29.132;2023-09-30T06:34:08;21.60;99.90
8945;DHT22;4507;40.232;29.132;2023-09-30T06:36:40;21.60;99.90
8945;DHT22;4507;40.232;29.132;2023-09-30T06:39:09;21.70;99.90
8945;DHT22;4507;40.232;29.132;2023-09-30T06:41:38;21.70;99.90
8945;DHT22;4507;40.232;29.132;2023-09-30T06:44:19;21.80;99.90
8945;DHT22;4507;40.232;29.132;2023-09-30T06:46:52;21.80;99.90
8945;DHT22;4507;40.232;29.132;2023-09-30T06:49:22;21.80;99.90
8945;DHT22;4507;40.232;29.132;2023-09-30T06:51:54;21.90;99.90
8945;DHT22;4507;40.232;29.132;2023-09-30T06:54:23;21.90;99.90
8945;DHT22;4507;40.232;29.132;2023-09-30T06:56:52;21.90;99.90
8945;DHT22;4507;40.232;29.132;2023-09-30T06:59:21;21.90;99.90
8945;DHT22;4507;40.232;29.132;2023-09-30T07:01:52;22.00;99.90
8945;DHT22;4507;40.232;29.132;2023-09-30T07:04:31;22.00;99.90
8945;DHT22;4507;40.232;29.132;2023-09-30T07:07:07;22.00;99.90
8945;DHT22;4507;40.232;29.132;2023-09-30T07:09:40;22.00;99.90
8945;DHT22;4507;40.232;29.132;2023-09-30T07:12:13;22.10;99.90
8945;DHT22;4507;40.232;29.132;2023-09-30T07:14:42;22.10;99.90
8945;DHT22;4507;40.232;29.132;2023-09-30T07:17:11;22.20;99.90
8945;DHT22;4507;40.232;29.132;2023-09-30T07:19:40;22.20;99.90
8945;DHT22;4507;40.232;29.132;2023-09-30T07:22:10;22.20;99.90
8945;DHT22;4507;40.232;29.132;2023-09-30T07:24:39;22.30;99.90
8945;DHT22;4507;40.232;29.132;2023-09-30T07:27:08;22.30;99.90
8945;DHT22;4507;40.232;29.132;2023-09-30T07:29:53;22.30;99.90
8945;DHT22;4507;40.232;29.132;2023-09-30T07:32:22;22.40;99.90
8945;DHT22;4507;40.232;29.132;2023-09-30T07:34:51;22.40;99.90
8945;DHT22;4507;40.232;29.132;2023-09-30T07:37:22;22.40;99.90
8945;DHT22;4507;40.232;29.132;2023-09-30T07:39:51;22.50;99.90
8945;DHT22;4507;40.232;29.132;2023-09-30T07:42:20;22.50;99.90
8945;DHT22;4507;40.232;29.132;2023-09-30T07:44:49;22.60;99.90
8945;DHT22;4507;40.232;29.132;2023-09-30T07:47:19;22.60;99.90
8945;DHT22;4507;40.232;29.132;2023-09-30T07:49:48;22.70;99.90
8945;DHT22;4507;40.232;29.132;2023-09-30T07:52:17;22.80;99.70
8945;DHT22;4507;40.232;29.132;2023-09-30T07:54:48;22.90;99.50
8945;DHT22;4507;40.232;29.132;2023-09-30T07:57:17;23.00;99.30
8945;DHT22;4507;40.232;29.132;2023-09-30T07:59:48;23.10;99.20
8945;DHT22;4507;40.232;29.132;2023-09-30T08:02:17;23.20;99.10
8945;DHT22;4507;40.232;29.132;2023-09-30T08:04:46;23.30;98.80
8945;DHT22;4507;40.232;29.132;2023-09-30T08:07:15;23.40;98.40
8945;DHT22;4507;40.232;29.132;2023-09-30T08:09:44;23.50;98.20
8945;DHT22;4507;40.232;29.132;2023-09-30T08:12:14;23.60;97.90
8945;DHT22;4507;40.232;29.132;2023-09-30T08:14:43;23.70;97.70
8945;DHT22;4507;40.232;29.132;2023-09-30T08:17:15;23.80;97.40
8945;DHT22;4507;40.232;29.132;2023-09-30T08:19:45;23.90;97.10
8945;DHT22;4507;40.232;29.132;2023-09-30T08:22:15;24.00;97.00
8945;DHT22;4507;40.232;29.132;2023-09-30T08:24:44;24.10;96.70
8945;DHT22;4507;40.232;29.132;2023-09-30T08:27:14;24.20;96.40
8945;DHT22;4507;40.232;29.132;2023-09-30T08:29:44;24.20;95.90
8945;DHT22;4507;40.232;29.132;2023-09-30T08:32:13;24.30;95.80
8945;DHT22;4507;40.232;29.132;2023-09-30T08:34:42;24.40;95.60
8945;DHT22;4507;40.232;29.132;2023-09-30T08:37:11;24.60;95.50
8945;DHT22;4507;40.232;29.132;2023-09-30T08:39:40;24.80;95.20
8945;DHT22;4507;40.232;29.132;2023-09-30T08:42:10;24.90;95.40
8945;DHT22;4507;40.232;29.132;2023-09-30T08:44:41;25.20;95.10
8945;DHT22;4507;40.232;29.132;2023-09-30T08:47:15;25.40;94.80
8945;DHT22;4507;40.232;29.132;2023-09-30T08:49:50;25.60;93.80
8945;DHT22;4507;40.232;29.132;2023-09-30T08:52:25;25.90;93.50
8945;DHT22;4507;40.232;29.132;2023-09-30T08:54:55;26.00;92.50
8945;DHT22;4507;40.232;29.132;2023-09-30T08:57:24;26.10;91.50
8945;DHT22;4507;40.232;29.132;2023-09-30T08:59:55;26.20;90.00
8945;DHT22;4507;40.232;29.132;2023-09-30T09:02:24;26.20;89.00
8945;DHT22;4507;40.232;29.132;2023-09-30T09:04:53;26.10;88.60
8945;DHT22;4507;40.232;29.132;2023-09-30T09:07:22;26.10;86.90
8945;DHT22;4507;40.232;29.132;2023-09-30T09:10:05;26.10;85.90
8945;DHT22;4507;40.232;29.132;2023-09-30T09:12:36;26.10;85.90
8945;DHT22;4507;40.232;29.132;2023-09-30T09:15:19;26.00;85.90
8945;DHT22;4507;40.232;29.132;2023-09-30T09:17:49;26.00;86.50
8945;DHT22;4507;40.232;29.132;2023-09-30T09:20:38;26.10;87.10
8945;DHT22;4507;40.232;29.132;2023-09-30T09:23:07;26.20;87.10
8945;DHT22;4507;40.232;29.132;2023-09-30T09:25:38;26.30;86.50
8945;DHT22;4507;40.232;29.132;2023-09-30T09:28:07;26.40;85.60
8945;DHT22;4507;40.232;29.132;2023-09-30T09:30:38;26.60;85.00
8945;DHT22;4507;40.232;29.132;2023-09-30T09:33:08;26.70;84.20
8945;DHT22;4507;40.232;29.132;2023-09-30T09:35:37;26.80;84.00
8945;DHT22;4507;40.232;29.132;2023-09-30T09:38:07;26.80;83.10
8945;DHT22;4507;40.232;29.132;2023-09-30T09:40:37;26.80;82.20
8945;DHT22;4507;40.232;29.132;2023-09-30T09:43:09;26.60;81.40
8945;DHT22;4507;40.232;29.132;2023-09-30T09:45:40;26.40;81.40
8945;DHT22;4507;40.232;29.132;2023-09-30T09:48:11;26.20;81.40
8945;DHT22;4507;40.232;29.132;2023-09-30T09:50:40;26.00;81.70
8945;DHT22;4507;40.232;29.132;2023-09-30T09:53:11;25.80;82.40
8945;DHT22;4507;40.232;29.132;2023-09-30T09:55:43;25.60;83.10
8945;DHT22;4507;40.232;29.132;2023-09-30T09:58:13;25.50;84.00
8945;DHT22;4507;40.232;29.132;2023-09-30T10:00:44;25.40;84.80
8945;DHT22;4507;40.232;29.132;2023-09-30T10:03:13;25.30;85.50
8945;DHT22;4507;40.232;29.132;2023-09-30T10:05:43;25.20;86.00
8945;DHT22;4507;40.232;29.132;2023-09-30T10:08:15;25.20;86.80
8945;DHT22;4507;40.232;29.132;2023-09-30T10:10:45;25.20;87.30
8945;DHT22;4507;40.232;29.132;2023-09-30T10:13:54;25.20;87.70
8945;DHT22;4507;40.232;29.132;2023-09-30T10:16:50;25.20;88.20
8945;DHT22;4507;40.232;29.132;2023-09-30T10:19:21;25.20;88.80
8945;DHT22;4507;40.232;29.132;2023-09-30T10:22:21;25.20;89.30
8945;DHT22;4507;40.232;29.132;2023-09-30T10:24:53;25.30;89.80
8945;DHT22;4507;40.232;29.132;2023-09-30T10:27:32;25.30;89.50
8945;DHT22;4507;40.232;29.132;2023-09-30T10:30:12;25.30;89.10
8945;DHT22;4507;40.232;29.132;2023-09-30T10:33:12;25.30;88.60
8945;DHT22;4507;40.232;29.132;2023-09-30T10:35:49;25.30;88.50
8945;DHT22;4507;40.232;29.132;2023-09-30T10:38:38;25.20;88.70
8945;DHT22;4507;40.232;29.132;2023-09-30T10:41:09;25.20;89.00
8945;DHT22;4507;40.232;29.132;2023-09-30T10:43:41;25.20;89.30
8945;DHT22;4507;40.232;29.132;2023-09-30T10:46:31;25.20;89.20
8945;DHT22;4507;40.232;29.132;2023-09-30T10:49:18;25.20;88.60
8945;DHT22;4507;40.232;29.132;2023-09-30T10:51:59;25.20;88.10
8945;DHT22;4507;40.232;29.132;2023-09-30T10:54:29;25.10;87.10
8945;DHT22;4507;40.232;29.132;2023-09-30T10:57:00;25.10;87.30
8945;DHT22;4507;40.232;29.132;2023-09-30T10:59:31;25.00;87.70
8945;DHT22;4507;40.232;29.132;2023-09-30T11:02:22;24.90;88.40
8945;DHT22;4507;40.232;29.132;2023-09-30T11:04:53;24.80;89.10
8945;DHT22;4507;40.232;29.132;2023-09-30T11:07:23;24.70;90.10
8945;DHT22;4507;40.232;29.132;2023-09-30T11:09:54;24.70;90.50
8945;DHT22;4507;40.232;29.132;2023-09-30T11:12:23;24.70;90.50
8945;DHT22;4507;40.232;29.132;2023-09-30T11:14:59;24.70;90.70
8945;DHT22;4507;40.232;29.132;2023-09-30T11:17:29;24.60;91.00
8945;DHT22;4507;40.232;29.132;2023-09-30T11:19:59;24.50;91.10
8945;DHT22;4507;40.232;29.132;2023-09-30T11:22:28;24.40;91.40
8945;DHT22;4507;40.232;29.132;2023-09-30T11:24:57;24.30;91.60
8945;DHT22;4507;40.232;29.132;2023-09-30T11:27:27;24.00;91.70
8945;DHT22;4507;40.232;29.132;2023-09-30T11:29:58;24.10;92.00
8945;DHT22;4507;40.232;29.132;2023-09-30T11:32:27;24.00;92.00
8945;DHT22;4507;40.232;29.132;2023-09-30T11:35:03;24.00;92.10
8945;DHT22;4507;40.232;29.132;2023-09-30T11:37:32;23.90;92.20
8945;DHT22;4507;40.232;29.132;2023-09-30T11:40:14;23.90;92.30
8945;DHT22;4507;40.232;29.132;2023-09-30T11:43:07;23.80;92.50
8945;DHT22;4507;40.232;29.132;2023-09-30T11:45:38;23.80;92.60
8945;DHT22;4507;40.232;29.132;2023-09-30T11:48:18;23.80;92.70
8945;DHT22;4507;40.232;29.132;2023-09-30T11:50:54;23.80;93.00
8945;DHT22;4507;40.232;29.132;2023-09-30T11:53:28;23.80;93.10
8945;DHT22;4507;40.232;29.132;2023-09-30T11:55:59;23.80;93.10
8945;DHT22;4507;40.232;29.132;2023-09-30T11:58:30;23.80;93.00
8945;DHT22;4507;40.232;29.132;2023-09-30T12:01:00;23.90;92.90
8945;DHT22;4507;40.232;29.132;2023-09-30T12:03:29;23.90;92.70
8945;DHT22;4507;40.232;29.132;2023-09-30T12:06:00;23.80;92.60
8945;DHT22;4507;40.232;29.132;2023-09-30T12:08:32;23.80;92.60
8945;DHT22;4507;40.232;29.132;2023-09-30T12:11:02;23.80;92.70
8945;DHT22;4507;40.232;29.132;2023-09-30T12:13:31;23.80;92.70
8945;DHT22;4507;40.232;29.132;2023-09-30T12:16:00;23.80;92.70
8945;DHT22;4507;40.232;29.132;2023-09-30T12:18:30;23.80;92.70
8945;DHT22;4507;40.232;29.132;2023-09-30T12:21:00;23.80;92.90
8945;DHT22;4507;40.232;29.132;2023-09-30T12:23:29;23.80;92.90
8945;DHT22;4507;40.232;29.132;2023-09-30T12:25:58;23.80;92.70
8945;DHT22;4507;40.232;29.132;2023-09-30T12:28:41;23.70;92.60
8945;DHT22;4507;40.232;29.132;2023-09-30T12:31:11;23.70;92.60
8945;DHT22;4507;40.232;29.132;2023-09-30T12:33:41;23.70;92.70
8945;DHT22;4507;40.232;29.132;2023-09-30T12:36:12;23.60;92.80
8945;DHT22;4507;40.232;29.132;2023-09-30T12:38:41;23.60;92.90
8945;DHT22;4507;40.232;29.132;2023-09-30T12:41:13;23.60;92.90
8945;DHT22;4507;40.232;29.132;2023-09-30T12:43:42;23.50;93.00
8945;DHT22;4507;40.232;29.132;2023-09-30T12:46:11;23.50;93.30
8945;DHT22;4507;40.232;29.132;2023-09-30T12:48:41;23.50;93.40
8945;DHT22;4507;40.232;29.132;2023-09-30T12:51:14;23.40;93.40
8945;DHT22;4507;40.232;29.132;2023-09-30T12:53:43;23.40;93.60
8945;DHT22;4507;40.232;29.132;2023-09-30T12:56:12;23.40;93.60
8945;DHT22;4507;40.232;29.132;2023-09-30T12:58:41;23.40;93.70
8945;DHT22;4507;40.232;29.132;2023-09-30T13:01:12;23.40;93.90
8945;DHT22;4507;40.232;29.132;2023-09-30T13:03:49;23.30;93.80
8945;DHT22;4507;40.232;29.132;2023-09-30T13:06:20;23.30;93.60
8945;DHT22;4507;40.232;29.132;2023-09-30T13:08:49;23.30;93.60
8945;DHT22;4507;40.232;29.132;2023-09-30T13:11:19;23.30;93.60
8945;DHT22;4507;40.232;29.132;2023-09-30T13:13:48;23.30;93.70
8945;DHT22;4507;40.232;29.132;2023-09-30T13:16:17;23.30;93.40
8945;DHT22;4507;40.232;29.132;2023-09-30T13:18:46;23.30;93.50
8945;DHT22;4507;40.232;29.132;2023-09-30T13:21:16;23.30;93.50
8945;DHT22;4507;40.232;29.132;2023-09-30T13:23:47;23.40;93.50
8945;DHT22;4507;40.232;29.132;2023-09-30T13:26:16;23.40;93.40
8945;DHT22;4507;40.232;29.132;2023-09-30T13:28:45;23.50;93.10
8945;DHT22;4507;40.232;29.132;2023-09-30T13:31:14;23.50;92.90
8945;DHT22;4507;40.232;29.132;2023-09-30T13:33:44;23.60;92.80
8945;DHT22;4507;40.232;29.132;2023-09-30T13:36:15;23.60;92.70
8945;DHT22;4507;40.232;29.132;2023-09-30T13:38:46;23.60;92.70
8945;DHT22;4507;40.232;29.132;2023-09-30T13:41:16;23.60;92.70
8945;DHT22;4507;40.232;29.132;2023-09-30T13:43:45;23.70;92.60
8945;DHT22;4507;40.232;29.132;2023-09-30T13:46:15;23.70;92.40
8945;DHT22;4507;40.232;29.132;2023-09-30T13:48:44;23.70;92.20
8945;DHT22;4507;40.232;29.132;2023-09-30T13:51:22;23.80;92.20
8945;DHT22;4507;40.232;29.132;2023-09-30T13:57:53;23.70;93.30
8945;DHT22;4507;40.232;29.132;2023-09-30T14:00:23;23.50;94.00
8945;DHT22;4507;40.232;29.132;2023-09-30T14:02:52;23.10;94.10
8945;DHT22;4507;40.232;29.132;2023-09-30T14:05:21;22.80;94.40
8945;DHT22;4507;40.232;29.132;2023-09-30T14:07:51;22.50;94.60
8945;DHT22;4507;40.232;29.132;2023-09-30T14:10:21;22.30;95.50
8945;DHT22;4507;40.232;29.132;2023-09-30T14:12:53;22.10;96.40
8945;DHT22;4507;40.232;29.132;2023-09-30T14:15:22;22.00;97.50
8945;DHT22;4507;40.232;29.132;2023-09-30T14:17:51;22.00;98.40
8945;DHT22;4507;40.232;29.132;2023-09-30T14:20:20;21.90;99.00
8945;DHT22;4507;40.232;29.132;2023-09-30T14:22:50;21.90;99.60
8945;DHT22;4507;40.232;29.132;2023-09-30T14:25:19;21.90;99.90
8945;DHT22;4507;40.232;29.132;2023-09-30T14:27:49;21.80;99.90
8945;DHT22;4507;40.232;29.132;2023-09-30T14:30:20;21.90;99.90
8945;DHT22;4507;40.232;29.132;2023-09-30T14:33:07;21.90;99.90
8945;DHT22;4507;40.232;29.132;2023-09-30T14:35:36;21.90;99.90
8945;DHT22;4507;40.232;29.132;2023-09-30T14:38:06;21.90;99.90
8945;DHT22;4507;40.232;29.132;2023-09-30T14:40:36;21.90;99.90
8945;DHT22;4507;40.232;29.132;2023-09-30T14:43:07;22.00;99.90
8945;DHT22;4507;40.232;29.132;2023-09-30T14:45:39;22.00;99.90
8945;DHT22;4507;40.232;29.132;2023-09-30T14:48:09;22.10;99.90
8945;DHT22;4507;40.232;29.132;2023-09-30T14:50:38;22.10;99.90
8945;DHT22;4507;40.232;29.132;2023-09-30T14:53:07;22.10;99.90
8945;DHT22;4507;40.232;29.132;2023-09-30T14:55:36;22.20;99.90
8945;DHT22;4507;40.232;29.132;2023-09-30T14:58:05;22.20;99.90
8945;DHT22;4507;40.232;29.132;2023-09-30T15:00:34;22.10;99.90
8945;DHT22;4507;40.232;29.132;2023-09-30T15:03:05;22.10;99.90
8945;DHT22;4507;40.232;29.132;2023-09-30T15:05:35;22.10;99.90
8945;DHT22;4507;40.232;29.132;2023-09-30T15:08:04;22.00;99.90
8945;DHT22;4507;40.232;29.132;2023-09-30T15:10:34;22.10;99.90
8945;DHT22;4507;40.232;29.132;2023-09-30T15:13:04;22.10;99.90
8945;DHT22;4507;40.232;29.132;2023-09-30T15:15:36;22.10;99.90
8945;DHT22;4507;40.232;29.132;2023-09-30T15:18:06;22.10;99.90
8945;DHT22;4507;40.232;29.132;2023-09-30T15:20:39;22.10;99.90
8945;DHT22;4507;40.232;29.132;2023-09-30T15:23:09;22.10;99.90
8945;DHT22;4507;40.232;29.132;2023-09-30T15:25:40;22.20;99.90
8945;DHT22;4507;40.232;29.132;2023-09-30T15:28:10;22.20;99.90
8945;DHT22;4507;40.232;29.132;2023-09-30T15:30:40;22.20;99.90
8945;DHT22;4507;40.232;29.132;2023-09-30T15:33:10;22.20;99.90
8945;DHT22;4507;40.232;29.132;2023-09-30T15:35:39;22.20;99.90
8945;DHT22;4507;40.232;29.132;2023-09-30T15:38:08;22.20;99.90
8945;DHT22;4507;40.232;29.132;2023-09-30T15:40:51;22.10;99.90
8945;DHT22;4507;40.232;29.132;2023-09-30T15:43:27;22.10;99.90
8945;DHT22;4507;40.232;29.132;2023-09-30T15:45:57;22.20;99.90
8945;DHT22;4507;40.232;29.132;2023-09-30T15:48:27;22.10;99.90
8945;DHT22;4507;40.232;29.132;2023-09-30T15:50:57;22.10;99.90
8945;DHT22;4507;40.232;29.132;2023-09-30T15:53:26;22.00;99.90
8945;DHT22;4507;40.232;29.132;2023-09-30T15:56:01;22.00;99.90
8945;DHT22;4507;40.232;29.132;2023-09-30T15:58:30;21.90;99.90
8945;DHT22;4507;40.232;29.132;2023-09-30T16:01:00;21.90;99.90
8945;DHT22;4507;40.232;29.132;2023-09-30T16:03:30;21.80;99.90
8945;DHT22;4507;40.232;29.132;2023-09-30T16:06:04;21.80;99.90
8945;DHT22;4507;40.232;29.132;2023-09-30T16:08:34;21.70;99.90
8945;DHT22;4507;40.232;29.132;2023-09-30T16:11:06;21.70;99.90
8945;DHT22;4507;40.232;29.132;2023-09-30T16:13:36;21.60;99.90